Meteorological Aerodrome Report (METAR)

METAR

METAR for:NVSC (Vanua Lava/Sola Airport)
Text:NVSC 111800Z AUTO 02001KT //// // NCD 23/23 Q1006 RMK NIL
Temperature: 23.0°C ( 73°F)
Dewpoint: 23.0°C ( 73°F) [RH = 100%]
Pressure (altimeter):29.70 inches Hg (1006.0 mb)
Winds:from the NNE (20 degrees) at 1 MPH (1 knots; 0.5 m/s)
Ceiling:at least 12,000 feet AGL
Clouds:sky clear below 12,000 feet AGL

METAR

METAR for:NVSG (Ambae/Longana Airport)
Text:NVSG 111800Z AUTO 27001KT //// // NCD 24/22 Q1007 RMK NIL
Temperature: 24.0°C ( 75°F)
Dewpoint: 22.0°C ( 72°F) [RH = 89%]
Pressure (altimeter):29.73 inches Hg (1007.0 mb)
Winds:from the W (270 degrees) at 1 MPH (1 knots; 0.5 m/s)
Ceiling:at least 12,000 feet AGL
Clouds:sky clear below 12,000 feet AGL

METAR

METAR for:NVSS (Santo/Pekoa International Airport)
Text:NVSS 111900Z VRB02KT 9999 FEW025 23/22 Q1006 RMK NIL
Temperature: 23.0°C ( 73°F)
Dewpoint: 22.0°C ( 72°F) [RH = 94%]
Pressure (altimeter):29.70 inches Hg (1006.0 mb)
Winds:variable direction winds at 2 MPH (2 knots; 1.0 m/s)
Visibility:6 or more sm (10+ km)
Ceiling:at least 12,000 feet AGL
Clouds: few clouds at 2500 feet AGL

METAR

METAR for:NVSL (Malekula/Lamap Airport)
Text:NVSL 111800Z 09006KT 9999 BKN020 26/23 Q1005 RMK NIL
Temperature: 26.0°C ( 79°F)
Dewpoint: 23.0°C ( 73°F) [RH = 84%]
Pressure (altimeter):29.68 inches Hg (1005.0 mb)
Winds:from the E (90 degrees) at 7 MPH (6 knots; 3.1 m/s)
Visibility:6 or more sm (10+ km)
Ceiling:2000 feet AGL
Clouds: broken clouds at 2000 feet AGL

METAR

METAR for:NVSP (Malekula/Norsup Airport) (Norsup Arpt, --, NV)
Text:NVSP (Malekula/Norsup Airport) 112000Z AUTO 11004KT //// // NCD 26/24 Q1006 RMK NIL
Temperature: 26.0°C ( 79°F)
Dewpoint: 24.0°C ( 75°F) [RH = 89%]
Pressure (altimeter):29.70 inches Hg (1006.0 mb)
Winds:from the ESE (110 degrees) at 5 MPH (4 knots; 2.1 m/s)
Ceiling:at least 12,000 feet AGL
Clouds:sky clear below 12,000 feet AGL

METAR

METAR for:NVVV (Efate/Bauerfield International Airport)
Text:NVVV 112000Z 10003KT 9999 SCT020 26/23 Q1007 RMK NIL
Temperature: 26.0°C ( 79°F)
Dewpoint: 23.0°C ( 73°F) [RH = 84%]
Pressure (altimeter):29.73 inches Hg (1007.0 mb)
Winds:from the E (100 degrees) at 3 MPH (3 knots; 1.5 m/s)
Visibility:6 or more sm (10+ km)
Ceiling:at least 12,000 feet AGL
Clouds: scattered clouds at 2000 feet AGL

METAR

METAR for:NVVW (Tanna/WhiteGrass International Airport)
Text:NVVW 112000Z 09004KT 9999 FEW025 BKN130 26/24 Q1008 RMK NIL
Temperature: 26.0°C ( 79°F)
Dewpoint: 24.0°C ( 75°F) [RH = 89%]
Pressure (altimeter):29.76 inches Hg (1008.0 mb)
Winds:from the E (90 degrees) at 5 MPH (4 knots; 2.1 m/s)
Visibility:6 or more sm (10+ km)
Ceiling:13000 feet AGL
Clouds: few clouds at 2500 feet AGL, broken clouds at 13000 feet AGL

METAR

METAR for:NVVA (Aneityum/Anelcahuat Airport)
Text:NVVA 111800Z 00000KT 9999 SCT018 OVC040 21/21 Q1007 RMK NIL
Temperature: 21.0°C ( 70°F)
Dewpoint: 21.0°C ( 70°F) [RH = 100%]
Pressure (altimeter):29.73 inches Hg (1007.0 mb)
Winds:calm
Visibility:6 or more sm (10+ km)
Ceiling:4000 feet AGL
Clouds: scattered clouds at 1800 feet AGL, overcast cloud deck at 4000 feet AGL

METAR

ADDS METAR Data INFO
IDs: Format: Raw Decoded Include TAF

Data at: 2045 UTC 11 Dec 2017

NVSC 111800Z AUTO 02001KT //// // NCD 23/23 Q1006 RMK NIL
NVSG 111800Z AUTO 27001KT //// // NCD 24/22 Q1007 RMK NIL
NVSS 111900Z VRB02KT 9999 FEW025 23/22 Q1006 RMK NIL
NVSL 111800Z 09006KT 9999 BKN020 26/23 Q1005 RMK NIL
NVSP 112000Z AUTO 11004KT //// // NCD 26/24 Q1006 RMK NIL
NVVV 112000Z 10003KT 9999 SCT020 26/23 Q1007 RMK NIL
NVVW 112000Z 09004KT 9999 FEW025 BKN130 26/24 Q1008 RMK NIL
NVVA 111800Z 00000KT 9999 SCT018 OVC040 21/21 Q1007 RMK NIL